Time;durP1;ratioP1;P1;durP2;ratioP2;P2;SDS_P1;SDS_P2;PMS_P1;PMS_P2;Temp;Humidity;BMP_temperature;BMP_pressure;BME280_temperature;BME280_humidity;BME280_pressure;Samples;Min_cycle;Max_cycle;Signal;HPM_P1;HPM_P2
2022/09/01 00:00:47;;;;;;;36.17;23.20;;;;;;;;;;5074910;28;20956;-72
2022/09/01 00:03:15;;;;;;;32.10;22.97;;;;;;;;;;5075207;28;20566;-72
2022/09/01 00:05:45;;;;;;;31.00;22.70;;;;;;;;;;5074432;28;20452;-72
2022/09/01 00:08:12;;;;;;;27.90;22.57;;;;;;;;;;5075007;28;20487;-72
2022/09/01 00:10:39;;;;;;;28.20;20.80;;;;;;;;;;5074898;28;20457;-72
2022/09/01 00:13:07;;;;;;;26.53;21.27;;;;;;;;;;5075008;28;20956;-72
2022/09/01 00:15:34;;;;;;;30.07;21.33;;;;;;;;;;5074641;28;21022;-72
2022/09/01 00:18:02;;;;;;;27.00;20.20;;;;;;;;;;5075195;28;20452;-71
2022/09/01 00:20:30;;;;;;;31.13;21.70;;;;;;;;;;5074871;28;20814;-72
2022/09/01 00:22:59;;;;;;;35.00;24.50;;;;;;;;;;5074951;28;20819;-71
2022/09/01 00:25:26;;;;;;;34.57;23.97;;;;;;;;;;5074473;28;20499;-71
2022/09/01 00:27:54;;;;;;;35.37;23.67;;;;;;;;;;5074663;28;20536;-71
2022/09/01 00:30:22;;;;;;;32.70;24.20;;;;;;;;;;5074602;28;20460;-71
2022/09/01 00:32:49;;;;;;;31.93;21.53;;;;;;;;;;5074609;28;20937;-71
2022/09/01 00:35:19;;;;;;;26.70;18.00;;;;;;;;;;5074495;28;20471;-71
2022/09/01 00:37:46;;;;;;;20.50;15.20;;;;;;;;;;5074742;28;20452;-71
2022/09/01 00:40:14;;;;;;;26.43;15.30;;;;;;;;;;5074591;28;20455;-71
2022/09/01 00:42:43;;;;;;;18.87;14.30;;;;;;;;;;5074293;28;20960;-71
2022/09/01 00:45:11;;;;;;;17.50;13.50;;;;;;;;;;5074209;28;20820;-72
2022/09/01 00:47:38;;;;;;;16.83;12.27;;;;;;;;;;5073637;28;20459;-72
2022/09/01 00:50:06;;;;;;;11.17;9.97;;;;;;;;;;5074167;28;20522;-72
2022/09/01 00:52:37;;;;;;;14.20;12.33;;;;;;;;;;5074214;28;20952;-72
2022/09/01 00:55:08;;;;;;;15.17;11.47;;;;;;;;;;5073923;28;20507;-72
2022/09/01 00:57:35;;;;;;;15.90;11.90;;;;;;;;;;5074315;28;20458;-72
2022/09/01 01:00:04;;;;;;;17.87;12.17;;;;;;;;;;5074370;28;20439;-72
2022/09/01 01:02:31;;;;;;;17.83;14.77;;;;;;;;;;5073965;28;20529;-72
2022/09/01 01:04:59;;;;;;;19.53;13.90;;;;;;;;;;5073615;28;21015;-72
2022/09/01 01:07:26;;;;;;;19.23;13.50;;;;;;;;;;5073415;28;20815;-72
2022/09/01 01:09:55;;;;;;;18.20;14.47;;;;;;;;;;5073754;28;20479;-72
2022/09/01 01:12:22;;;;;;;16.67;13.63;;;;;;;;;;5073685;28;20447;-72
2022/09/01 01:14:50;;;;;;;18.03;13.00;;;;;;;;;;5073543;28;20965;-72
2022/09/01 01:17:18;;;;;;;18.80;14.37;;;;;;;;;;5073581;28;20826;-72
2022/09/01 01:25:22;;;;;;;20.93;15.53;;;;;;;;;;5073460;28;20427;-72
2022/09/01 01:27:50;;;;;;;25.83;16.87;;;;;;;;;;5073309;28;20517;-72
2022/09/01 01:30:19;;;;;;;20.20;16.10;;;;;;;;;;5073597;28;20456;-72
2022/09/01 01:32:48;;;;;;;25.60;18.10;;;;;;;;;;5073381;28;20451;-72
2022/09/01 01:35:19;;;;;;;25.50;17.63;;;;;;;;;;5073238;28;20980;-72
2022/09/01 01:37:47;;;;;;;25.37;16.93;;;;;;;;;;5073674;28;20447;-72
2022/09/01 01:40:15;;;;;;;21.90;15.70;;;;;;;;;;5073226;28;20452;-72
2022/09/01 01:42:45;;;;;;;27.30;18.90;;;;;;;;;;5073337;28;20464;-72
2022/09/01 01:45:15;;;;;;;23.63;17.83;;;;;;;;;;5072915;28;20537;-72
2022/09/01 01:47:45;;;;;;;23.77;17.77;;;;;;;;;;5073334;28;20953;-72
2022/09/01 01:50:14;;;;;;;24.50;18.57;;;;;;;;;;5073273;28;20490;-72
2022/09/01 01:52:41;;;;;;;23.07;16.83;;;;;;;;;;5072990;28;20451;-72
2022/09/01 01:55:11;;;;;;;28.07;17.47;;;;;;;;;;5072983;28;20527;-72
2022/09/01 01:57:38;;;;;;;22.17;16.60;;;;;;;;;;5073009;28;20502;-72
2022/09/01 02:00:08;;;;;;;23.53;15.80;;;;;;;;;;5072527;28;20448;-72
2022/09/01 02:02:37;;;;;;;20.63;16.47;;;;;;;;;;5073087;28;20513;-72
2022/09/01 02:05:05;;;;;;;22.83;17.73;;;;;;;;;;5072742;28;20502;-72
2022/09/01 02:07:32;;;;;;;25.73;16.10;;;;;;;;;;5072465;28;20940;-72
2022/09/01 02:10:00;;;;;;;18.77;15.57;;;;;;;;;;5072980;28;20494;-71
2022/09/01 02:12:27;;;;;;;18.47;15.37;;;;;;;;;;5073018;28;20456;-72
2022/09/01 02:14:55;;;;;;;21.23;16.37;;;;;;;;;;5072741;28;20987;-72
2022/09/01 02:17:25;;;;;;;16.93;13.53;;;;;;;;;;5072942;28;20448;-72
2022/09/01 02:19:55;;;;;;;20.30;15.43;;;;;;;;;;5072961;28;20873;-72
2022/09/01 02:22:22;;;;;;;19.67;15.20;;;;;;;;;;5072717;28;21001;-72
2022/09/01 02:24:51;;;;;;;18.40;15.00;;;;;;;;;;5072780;28;20483;-72
2022/09/01 02:27:20;;;;;;;20.07;15.33;;;;;;;;;;5072806;28;20642;-72
2022/09/01 02:29:50;;;;;;;20.10;14.90;;;;;;;;;;5072642;28;20483;-72
2022/09/01 02:32:20;;;;;;;22.20;16.87;;;;;;;;;;5072775;28;20487;-72
2022/09/01 02:34:52;;;;;;;21.90;14.90;;;;;;;;;;5072438;28;21054;-72
2022/09/01 02:37:24;;;;;;;27.80;16.50;;;;;;;;;;5072756;28;20969;-72
2022/09/01 02:39:51;;;;;;;21.63;14.10;;;;;;;;;;5072820;28;20448;-72
2022/09/01 02:42:21;;;;;;;18.17;14.57;;;;;;;;;;5072636;28;20509;-72
2022/09/01 02:44:48;;;;;;;18.97;14.10;;;;;;;;;;5072299;28;20479;-72
2022/09/01 02:47:15;;;;;;;21.53;16.87;;;;;;;;;;5072543;28;20953;-72
2022/09/01 02:49:42;;;;;;;20.63;15.07;;;;;;;;;;5072594;28;20521;-72
2022/09/01 02:52:13;;;;;;;23.13;16.97;;;;;;;;;;5072774;28;20447;-72
2022/09/01 02:54:44;;;;;;;23.13;16.03;;;;;;;;;;5072220;28;20517;-72
2022/09/01 02:57:11;;;;;;;19.83;15.33;;;;;;;;;;5072651;28;20555;-72
2022/09/01 02:59:40;;;;;;;23.60;17.40;;;;;;;;;;5072287;28;20463;-72
2022/09/01 03:02:08;;;;;;;23.83;16.20;;;;;;;;;;5072962;28;20458;-72
2022/09/01 03:04:35;;;;;;;27.90;17.60;;;;;;;;;;5072080;28;20487;-72
2022/09/01 03:07:03;;;;;;;25.40;18.60;;;;;;;;;;5072019;28;20454;-72
2022/09/01 03:09:33;;;;;;;25.87;17.73;;;;;;;;;;5072690;28;20487;-72
2022/09/01 03:12:01;;;;;;;29.10;21.00;;;;;;;;;;5076150;28;20491;-72
2022/09/01 03:14:28;;;;;;;33.30;19.40;;;;;;;;;;5075570;28;20537;-72
2022/09/01 03:16:56;;;;;;;34.00;21.70;;;;;;;;;;5076124;28;20516;-72
2022/09/01 03:19:23;;;;;;;31.57;21.27;;;;;;;;;;5075918;28;20439;-72
2022/09/01 03:21:50;;;;;;;31.67;21.70;;;;;;;;;;5076165;28;20454;-72
2022/09/01 03:24:18;;;;;;;28.47;21.50;;;;;;;;;;5075617;28;20470;-72
2022/09/01 03:26:48;;;;;;;31.43;22.27;;;;;;;;;;5075932;28;20451;-72
2022/09/01 03:29:16;;;;;;;28.50;20.07;;;;;;;;;;5075951;28;20479;-72
2022/09/01 03:31:43;;;;;;;29.03;20.50;;;;;;;;;;5075893;28;20448;-72
2022/09/01 03:34:11;;;;;;;28.90;20.90;;;;;;;;;;5075429;28;20494;-72
2022/09/01 03:36:38;;;;;;;26.83;19.93;;;;;;;;;;5075673;28;20460;-72
2022/09/01 03:39:08;;;;;;;29.70;20.37;;;;;;;;;;5075712;28;20501;-72
2022/09/01 03:41:36;;;;;;;29.03;20.50;;;;;;;;;;5075553;28;20983;-72
2022/09/01 03:44:05;;;;;;;30.27;22.87;;;;;;;;;;5075226;28;21008;-72
2022/09/01 03:46:33;;;;;;;54.33;25.60;;;;;;;;;;5075354;28;20979;-72
2022/09/01 03:49:00;;;;;;;74.13;25.67;;;;;;;;;;5075476;28;20479;-72
2022/09/01 03:51:29;;;;;;;166.93;30.13;;;;;;;;;;5075288;28;20458;-72
2022/09/01 03:53:58;;;;;;;49.90;24.87;;;;;;;;;;5075198;28;20520;-72
2022/09/01 03:56:26;;;;;;;151.70;34.10;;;;;;;;;;5075356;28;20455;-72
2022/09/01 03:58:53;;;;;;;100.40;33.77;;;;;;;;;;5075285;28;20467;-72
2022/09/01 04:01:22;;;;;;;103.40;32.30;;;;;;;;;;5075145;28;20950;-72
2022/09/01 04:03:50;;;;;;;282.77;46.93;;;;;;;;;;5074879;28;20468;-72
2022/09/01 04:06:19;;;;;;;228.47;47.43;;;;;;;;;;5074613;28;20543;-72
2022/09/01 04:08:46;;;;;;;216.13;42.43;;;;;;;;;;5075282;28;20509;-71
2022/09/01 04:11:17;;;;;;;148.50;42.03;;;;;;;;;;5075194;28;20448;-71
2022/09/01 04:13:45;;;;;;;288.90;48.23;;;;;;;;;;5074779;28;20471;-72
2022/09/01 04:19:14;;;;;;;235.47;43.30;;;;;;;;;;5052040;28;20440;-71
2022/09/01 04:21:41;;;;;;;154.67;39.50;;;;;;;;;;5074328;28;20943;-72
2022/09/01 04:24:10;;;;;;;124.23;36.97;;;;;;;;;;5074587;28;20475;-71
2022/09/01 04:26:38;;;;;;;129.27;37.87;;;;;;;;;;5074707;28;20455;-71
2022/09/01 04:29:08;;;;;;;95.57;34.80;;;;;;;;;;5074567;28;20515;-71
2022/09/01 04:31:37;;;;;;;69.07;34.60;;;;;;;;;;5074561;28;20447;-71
2022/09/01 04:34:08;;;;;;;73.87;34.93;;;;;;;;;;5074329;28;20475;-71
2022/09/01 04:36:36;;;;;;;62.97;31.00;;;;;;;;;;5074556;28;20470;-71
2022/09/01 04:39:07;;;;;;;62.83;32.27;;;;;;;;;;5074541;28;20551;-71
2022/09/01 04:41:36;;;;;;;67.80;34.27;;;;;;;;;;5074222;28;20464;-72
2022/09/01 04:44:03;;;;;;;56.33;32.83;;;;;;;;;;5074090;28;20475;-72
2022/09/01 04:46:32;;;;;;;52.60;31.33;;;;;;;;;;5074236;28;20827;-71
2022/09/01 04:49:00;;;;;;;63.30;33.53;;;;;;;;;;5074298;28;20541;-71
2022/09/01 04:51:28;;;;;;;56.17;30.67;;;;;;;;;;5074223;28;20462;-71
2022/09/01 04:53:56;;;;;;;50.67;30.03;;;;;;;;;;5073904;28;20467;-71
2022/09/01 04:56:24;;;;;;;50.27;30.30;;;;;;;;;;5074068;28;20546;-71
2022/09/01 04:58:52;;;;;;;53.43;31.20;;;;;;;;;;5073960;28;20475;-71
2022/09/01 05:01:21;;;;;;;53.47;29.73;;;;;;;;;;5074209;28;20504;-71
2022/09/01 05:03:55;;;;;;;49.73;29.60;;;;;;;;;;5089557;28;20477;-71
2022/09/01 05:06:23;;;;;;;50.97;28.50;;;;;;;;;;5093716;28;20439;-71
2022/09/01 05:08:52;;;;;;;42.20;27.00;;;;;;;;;;5094087;28;20451;-71
2022/09/01 05:11:19;;;;;;;43.57;27.83;;;;;;;;;;5093755;28;20501;-71
2022/09/01 05:13:48;;;;;;;46.33;27.97;;;;;;;;;;5093437;28;20497;-72
2022/09/01 05:16:19;;;;;;;50.27;27.83;;;;;;;;;;5073690;28;20936;-71
2022/09/01 05:18:47;;;;;;;39.70;26.80;;;;;;;;;;5073578;28;20502;-71
2022/09/01 05:21:16;;;;;;;46.03;27.80;;;;;;;;;;5073612;28;20869;-71
2022/09/01 05:23:44;;;;;;;40.77;26.00;;;;;;;;;;5073386;28;20982;-71
2022/09/01 05:26:16;;;;;;;42.20;26.30;;;;;;;;;;5073519;28;20455;-71
2022/09/01 05:28:43;;;;;;;36.70;23.33;;;;;;;;;;5073271;28;20459;-71
2022/09/01 05:31:11;;;;;;;32.43;23.80;;;;;;;;;;5073339;28;20506;-71
2022/09/01 05:33:44;;;;;;;36.27;24.83;;;;;;;;;;5072876;28;20472;-71
2022/09/01 05:36:11;;;;;;;35.20;24.17;;;;;;;;;;5073145;28;20512;-71
2022/09/01 05:38:41;;;;;;;34.90;24.80;;;;;;;;;;5073012;28;20443;-71
2022/09/01 05:41:10;;;;;;;32.77;22.40;;;;;;;;;;5072986;28;20471;-71
2022/09/01 05:43:38;;;;;;;35.30;24.67;;;;;;;;;;5072886;28;20521;-71
2022/09/01 05:46:07;;;;;;;35.63;23.90;;;;;;;;;;5073204;28;20447;-71
2022/09/01 05:48:38;;;;;;;39.17;24.97;;;;;;;;;;5073011;28;20455;-71
2022/09/01 05:51:06;;;;;;;32.73;22.73;;;;;;;;;;5072950;28;20526;-71
2022/09/01 05:53:33;;;;;;;38.67;25.47;;;;;;;;;;5072676;28;20468;-71
2022/09/01 05:56:05;;;;;;;39.07;23.90;;;;;;;;;;5072862;28;20522;-71
2022/09/01 05:58:33;;;;;;;36.63;24.73;;;;;;;;;;5087853;28;20481;-71
2022/09/01 06:01:02;;;;;;;32.23;22.47;;;;;;;;;;5093123;28;20541;-71
2022/09/01 06:03:30;;;;;;;36.50;23.23;;;;;;;;;;5092689;28;20477;-71
2022/09/01 06:06:02;;;;;;;36.33;23.10;;;;;;;;;;5092562;28;20453;-71
2022/09/01 06:08:29;;;;;;;40.03;22.70;;;;;;;;;;5092819;28;20479;-71
2022/09/01 06:10:56;;;;;;;36.30;23.60;;;;;;;;;;5089671;28;20497;-71
2022/09/01 06:13:23;;;;;;;33.97;22.27;;;;;;;;;;5091814;28;20531;-72
2022/09/01 06:15:52;;;;;;;37.63;23.90;;;;;;;;;;5091469;28;20477;-71
2022/09/01 06:18:22;;;;;;;34.63;22.30;;;;;;;;;;5091498;28;20476;-71
2022/09/01 06:20:49;;;;;;;33.17;23.67;;;;;;;;;;5091388;28;20475;-72
2022/09/01 06:23:17;;;;;;;35.10;21.90;;;;;;;;;;5091455;28;20517;-71
2022/09/01 06:25:45;;;;;;;29.80;21.13;;;;;;;;;;5091059;28;20450;-72
2022/09/01 06:28:13;;;;;;;35.70;24.03;;;;;;;;;;5091530;28;20523;-72
2022/09/01 06:30:41;;;;;;;28.50;20.10;;;;;;;;;;5091518;28;20540;-71
2022/09/01 06:33:09;;;;;;;29.00;19.60;;;;;;;;;;5091334;28;20962;-71
2022/09/01 06:35:39;;;;;;;21.40;16.93;;;;;;;;;;5091193;28;20849;-72
2022/09/01 06:38:06;;;;;;;24.87;17.43;;;;;;;;;;5091610;28;20470;-71
2022/09/01 06:40:34;;;;;;;18.67;15.20;;;;;;;;;;5091074;28;20442;-71
2022/09/01 06:43:06;;;;;;;17.57;15.57;;;;;;;;;;5091331;28;20545;-71
2022/09/01 06:45:35;;;;;;;18.60;15.10;;;;;;;;;;5093220;28;20458;-71
2022/09/01 06:48:03;;;;;;;17.20;13.10;;;;;;;;;;5095448;28;20989;-71
2022/09/01 06:50:30;;;;;;;17.60;13.33;;;;;;;;;;5095095;28;20843;-71
2022/09/01 06:53:09;;;;;;;16.00;13.00;;;;;;;;;;5095231;28;20447;-72
2022/09/01 06:55:36;;;;;;;13.50;12.10;;;;;;;;;;5095082;28;20887;-72
2022/09/01 06:58:06;;;;;;;18.23;12.40;;;;;;;;;;5095214;28;20450;-71
2022/09/01 07:00:34;;;;;;;14.77;13.27;;;;;;;;;;5095035;28;20932;-71
2022/09/01 07:03:08;;;;;;;15.07;12.57;;;;;;;;;;5095077;28;20459;-72
2022/09/01 07:05:38;;;;;;;13.70;11.07;;;;;;;;;;5094671;28;20469;-72
2022/09/01 07:08:09;;;;;;;13.00;11.10;;;;;;;;;;5094518;28;20503;-71
2022/09/01 07:10:44;;;;;;;11.90;10.00;;;;;;;;;;5093754;28;20583;-71
2022/09/01 07:13:14;;;;;;;10.97;9.63;;;;;;;;;;5094963;28;20540;-72
2022/09/01 07:15:42;;;;;;;10.87;9.80;;;;;;;;;;5094564;28;20463;-72
2022/09/01 07:18:11;;;;;;;12.17;10.50;;;;;;;;;;5095007;28;20523;-72
2022/09/01 07:20:41;;;;;;;9.30;8.50;;;;;;;;;;5094674;28;20903;-71
2022/09/01 07:23:10;;;;;;;11.63;9.73;;;;;;;;;;5094996;28;20443;-71
2022/09/01 07:25:40;;;;;;;11.77;10.67;;;;;;;;;;5094553;28;20462;-71
2022/09/01 07:28:07;;;;;;;12.37;11.07;;;;;;;;;;5094565;28;20458;-71
2022/09/01 07:30:40;;;;;;;12.13;9.70;;;;;;;;;;5095497;28;20493;-71
2022/09/01 07:33:10;;;;;;;11.47;10.47;;;;;;;;;;5095609;28;20454;-71
2022/09/01 07:35:38;;;;;;;13.70;11.00;;;;;;;;;;5095602;28;20507;-71
2022/09/01 07:38:06;;;;;;;10.60;9.60;;;;;;;;;;5077737;28;20459;-71
2022/09/01 07:40:36;;;;;;;11.30;10.17;;;;;;;;;;5075399;28;20535;-71
2022/09/01 07:43:07;;;;;;;10.37;9.37;;;;;;;;;;5075562;28;20459;-71
2022/09/01 07:45:35;;;;;;;9.50;8.60;;;;;;;;;;5075358;28;20524;-72
2022/09/01 07:48:05;;;;;;;13.00;7.50;;;;;;;;;;5075543;28;20452;-71
2022/09/01 07:50:32;;;;;;;15.43;7.90;;;;;;;;;;5075409;28;20483;-71
2022/09/01 07:53:00;;;;;;;7.80;7.00;;;;;;;;;;5075417;28;20542;-71
2022/09/01 07:55:28;;;;;;;8.77;8.07;;;;;;;;;;5074964;28;20451;-71
2022/09/01 07:57:57;;;;;;;10.87;8.00;;;;;;;;;;5074184;28;20452;-71
2022/09/01 08:00:24;;;;;;;10.60;8.00;;;;;;;;;;5075293;28;20451;-71
2022/09/01 08:02:51;;;;;;;9.37;8.57;;;;;;;;;;5075125;28;20448;-71
2022/09/01 08:05:24;;;;;;;8.50;7.80;;;;;;;;;;5074913;28;20471;-71
2022/09/01 08:07:52;;;;;;;12.10;10.70;;;;;;;;;;5075150;28;20457;-71
2022/09/01 08:10:19;;;;;;;9.30;8.40;;;;;;;;;;5075060;28;21000;-71
2022/09/01 08:12:46;;;;;;;10.60;9.60;;;;;;;;;;5075127;28;20462;-71
2022/09/01 08:15:16;;;;;;;10.93;9.83;;;;;;;;;;5074836;28;20455;-71
2022/09/01 08:17:43;;;;;;;10.93;9.83;;;;;;;;;;5074762;28;20487;-71
2022/09/01 08:20:11;;;;;;;11.57;10.20;;;;;;;;;;5074722;28;20458;-71
2022/09/01 08:22:38;;;;;;;11.23;10.20;;;;;;;;;;5074652;28;20440;-71
2022/09/01 08:25:06;;;;;;;10.00;9.10;;;;;;;;;;5074482;28;20486;-71
2022/09/01 08:27:35;;;;;;;10.80;9.87;;;;;;;;;;5074656;28;20937;-71
2022/09/01 08:30:03;;;;;;;10.03;9.00;;;;;;;;;;5074704;28;20456;-71
2022/09/01 08:32:32;;;;;;;10.60;9.63;;;;;;;;;;5074662;28;20455;-71
2022/09/01 08:34:59;;;;;;;9.30;8.40;;;;;;;;;;5074289;28;20801;-71
2022/09/01 08:37:26;;;;;;;9.30;8.60;;;;;;;;;;5074588;28;20459;-71
2022/09/01 08:39:54;;;;;;;9.17;7.73;;;;;;;;;;5074644;28;20475;-71
2022/09/01 08:42:26;;;;;;;8.30;7.60;;;;;;;;;;5074466;28;20840;-71
2022/09/01 08:44:57;;;;;;;8.10;7.40;;;;;;;;;;5074112;28;20468;-72
2022/09/01 08:47:24;;;;;;;8.80;7.27;;;;;;;;;;5074325;28;20440;-72
2022/09/01 08:49:52;;;;;;;8.67;7.97;;;;;;;;;;5074281;28;20450;-72
2022/09/01 08:52:23;;;;;;;7.87;7.27;;;;;;;;;;5074149;28;20495;-71
2022/09/01 08:54:51;;;;;;;9.00;7.03;;;;;;;;;;5073988;28;20568;-72
2022/09/01 08:57:20;;;;;;;8.17;7.37;;;;;;;;;;5074149;28;20451;-72
2022/09/01 08:59:47;;;;;;;7.97;7.17;;;;;;;;;;5074163;28;20448;-72
2022/09/01 09:02:23;;;;;;;8.70;7.00;;;;;;;;;;5074021;28;20815;-71
2022/09/01 09:04:56;;;;;;;7.50;6.83;;;;;;;;;;5073663;28;20467;-71
2022/09/01 09:07:30;;;;;;;9.13;6.57;;;;;;;;;;5072927;28;20451;-71
2022/09/01 09:09:59;;;;;;;6.27;5.63;;;;;;;;;;5073901;28;20447;-71
2022/09/01 09:12:35;;;;;;;6.83;6.13;;;;;;;;;;5073788;28;21005;-71
2022/09/01 09:15:08;;;;;;;6.73;6.13;;;;;;;;;;5073699;28;20466;-72
2022/09/01 09:17:36;;;;;;;6.67;5.50;;;;;;;;;;5073722;28;20840;-72
2022/09/01 09:20:06;;;;;;;6.97;6.27;;;;;;;;;;5073797;28;20951;-71
2022/09/01 09:22:33;;;;;;;5.60;5.00;;;;;;;;;;5073812;28;20440;-71
2022/09/01 09:25:06;;;;;;;5.13;4.63;;;;;;;;;;5073415;28;20490;-71
2022/09/01 09:27:34;;;;;;;7.70;5.10;;;;;;;;;;5073609;28;20972;-71
2022/09/01 09:30:03;;;;;;;5.70;5.10;;;;;;;;;;5073673;28;20443;-71
2022/09/01 09:32:44;;;;;;;5.83;5.07;;;;;;;;;;5073269;28;20491;-71
2022/09/01 09:35:19;;;;;;;7.50;5.53;;;;;;;;;;5073110;28;20463;-72
2022/09/01 09:37:47;;;;;;;5.17;4.47;;;;;;;;;;5073385;28;20451;-72
2022/09/01 09:40:16;;;;;;;5.60;5.17;;;;;;;;;;5073359;28;20518;-72
2022/09/01 09:42:59;;;;;;;7.90;4.20;;;;;;;;;;5073248;28;20456;-72
2022/09/01 09:45:28;;;;;;;6.93;4.67;;;;;;;;;;5073123;28;20513;-72
2022/09/01 09:47:58;;;;;;;5.40;4.10;;;;;;;;;;5073202;28;20488;-72
2022/09/01 09:50:28;;;;;;;7.07;5.13;;;;;;;;;;5073228;28;20493;-72
2022/09/01 09:53:11;;;;;;;6.20;4.53;;;;;;;;;;5073106;28;20459;-71
2022/09/01 09:55:50;;;;;;;5.80;4.43;;;;;;;;;;5073058;28;20458;-72
2022/09/01 09:58:17;;;;;;;9.80;5.27;;;;;;;;;;5072954;28;20451;-72
2022/09/01 10:00:59;;;;;;;8.20;5.50;;;;;;;;;;5073260;28;20459;-72
2022/09/01 10:03:35;;;;;;;6.53;4.60;;;;;;;;;;5072795;28;20503;-73
2022/09/01 10:06:03;;;;;;;4.73;4.23;;;;;;;;;;5072767;28;20501;-72
2022/09/01 10:08:43;;;;;;;5.00;4.60;;;;;;;;;;5072961;28;20501;-72
2022/09/01 10:11:10;;;;;;;5.00;4.37;;;;;;;;;;5072906;28;20483;-72
2022/09/01 10:13:37;;;;;;;5.40;4.30;;;;;;;;;;5072604;28;20467;-72
2022/09/01 10:16:07;;;;;;;7.97;6.10;;;;;;;;;;5072944;28;20937;-71
2022/09/01 10:18:36;;;;;;;4.53;3.93;;;;;;;;;;5072828;28;20448;-71
2022/09/01 10:21:09;;;;;;;5.17;4.70;;;;;;;;;;5072078;28;20459;-72
2022/09/01 10:23:37;;;;;;;6.77;4.40;;;;;;;;;;5072717;28;20491;-72
2022/09/01 10:26:10;;;;;;;5.87;4.33;;;;;;;;;;5072623;28;20468;-71
2022/09/01 10:28:41;;;;;;;3.73;3.37;;;;;;;;;;5072825;28;20451;-71
2022/09/01 10:31:09;;;;;;;4.03;3.63;;;;;;;;;;5072429;28;20492;-72
2022/09/01 10:33:36;;;;;;;3.57;3.27;;;;;;;;;;5072414;28;20476;-72
2022/09/01 10:36:06;;;;;;;3.97;3.67;;;;;;;;;;5072866;28;20452;-71
2022/09/01 10:38:33;;;;;;;5.17;3.33;;;;;;;;;;5072918;28;20828;-71
2022/09/01 10:41:07;;;;;;;4.47;4.07;;;;;;;;;;5072672;28;20542;-71
2022/09/01 10:43:39;;;;;;;4.20;3.80;;;;;;;;;;5072277;28;20475;-72
2022/09/01 10:46:18;;;;;;;5.23;4.73;;;;;;;;;;5072749;28;20483;-71
2022/09/01 10:48:46;;;;;;;4.57;3.70;;;;;;;;;;5072745;28;20455;-72
2022/09/01 10:51:32;;;;;;;4.27;3.87;;;;;;;;;;5072435;28;20491;-71
2022/09/01 10:54:02;;;;;;;3.83;3.50;;;;;;;;;;5072349;28;20472;-72
2022/09/01 10:56:37;;;;;;;3.63;3.33;;;;;;;;;;5072517;28;20448;-71
2022/09/01 10:59:06;;;;;;;3.57;3.27;;;;;;;;;;5072537;28;20821;-71
2022/09/01 11:02:00;;;;;;;3.17;2.83;;;;;;;;;;5072691;28;20450;-72
2022/09/01 11:04:56;;;;;;;4.63;3.43;;;;;;;;;;5072059;28;20833;-72
2022/09/01 11:07:30;;;;;;;3.80;3.40;;;;;;;;;;5071723;28;20458;-72
2022/09/01 11:10:13;;;;;;;2.63;2.43;;;;;;;;;;5072136;28;20471;-72
2022/09/01 11:12:45;;;;;;;2.93;2.50;;;;;;;;;;5072284;28;20480;-72
2022/09/01 11:15:31;;;;;;;5.10;3.27;;;;;;;;;;5072107;28;20463;-72
2022/09/01 11:17:59;;;;;;;2.83;2.47;;;;;;;;;;5072683;28;20691;-72
2022/09/01 11:20:27;;;;;;;3.30;2.40;;;;;;;;;;5072321;28;20510;-72
2022/09/01 11:23:00;;;;;;;3.77;2.20;;;;;;;;;;5072146;28;21017;-72
2022/09/01 11:25:42;;;;;;;3.37;2.13;;;;;;;;;;5072129;28;20448;-72
2022/09/01 11:28:24;;;;;;;3.17;2.40;;;;;;;;;;5072262;28;20932;-72
2022/09/01 11:30:55;;;;;;;3.30;2.37;;;;;;;;;;5060443;28;20908;-72
2022/09/01 11:33:30;;;;;;;3.13;1.90;;;;;;;;;;5075616;28;20490;-72
2022/09/01 11:36:01;;;;;;;2.00;1.80;;;;;;;;;;5075831;28;20454;-72
2022/09/01 11:38:29;;;;;;;8.03;2.70;;;;;;;;;;5075842;28;20448;-72
2022/09/01 11:41:00;;;;;;;2.37;2.17;;;;;;;;;;5075756;28;20470;-72
2022/09/01 11:43:28;;;;;;;2.90;2.50;;;;;;;;;;5075549;28;20475;-72
2022/09/01 11:46:00;;;;;;;2.53;2.27;;;;;;;;;;5075632;28;20477;-73
2022/09/01 11:48:29;;;;;;;4.23;1.80;;;;;;;;;;5075570;28;20448;-73
2022/09/01 11:50:58;;;;;;;2.20;1.90;;;;;;;;;;5075578;28;20475;-73
2022/09/01 11:53:26;;;;;;;2.10;1.90;;;;;;;;;;5075230;28;20488;-72
2022/09/01 11:55:54;;;;;;;2.50;2.30;;;;;;;;;;5075542;28;20827;-73
2022/09/01 11:58:33;;;;;;;2.73;1.70;;;;;;;;;;5075428;28;20444;-73
2022/09/01 12:01:14;;;;;;;1.83;1.60;;;;;;;;;;5070514;28;20463;-73
2022/09/01 12:03:41;;;;;;;2.57;2.13;;;;;;;;;;5073126;28;20468;-73
2022/09/01 12:06:10;;;;;;;4.00;2.27;;;;;;;;;;5073544;28;20447;-73
2022/09/01 12:08:38;;;;;;;3.43;2.03;;;;;;;;;;5073882;28;20960;-73
2022/09/01 12:11:07;;;;;;;4.90;2.33;;;;;;;;;;5073788;28;20475;-73
2022/09/01 12:13:34;;;;;;;2.37;2.17;;;;;;;;;;5073251;28;20560;-73
2022/09/01 12:16:02;;;;;;;3.07;2.10;;;;;;;;;;5073687;28;20452;-73
2022/09/01 12:18:33;;;;;;;4.13;2.00;;;;;;;;;;5073340;28;20458;-73
2022/09/01 12:21:01;;;;;;;2.10;1.90;;;;;;;;;;5073496;28;20501;-73
2022/09/01 12:23:30;;;;;;;1.97;1.77;;;;;;;;;;5073217;28;20876;-74
2022/09/01 12:25:59;;;;;;;3.50;2.00;;;;;;;;;;5073279;28;20783;-74
2022/09/01 12:28:29;;;;;;;5.10;2.47;;;;;;;;;;5073215;28;20971;-73
2022/09/01 12:30:57;;;;;;;3.83;1.83;;;;;;;;;;5076047;28;20940;-73
2022/09/01 12:33:24;;;;;;;2.50;1.80;;;;;;;;;;5072840;28;20503;-74
2022/09/01 12:35:53;;;;;;;2.00;1.73;;;;;;;;;;5073189;28;20455;-73
2022/09/01 12:38:24;;;;;;;2.80;2.30;;;;;;;;;;5073129;28;20863;-73
2022/09/01 12:40:52;;;;;;;3.00;2.43;;;;;;;;;;5072771;28;20471;-74
2022/09/01 12:43:30;;;;;;;6.47;2.37;;;;;;;;;;5072514;28;20880;-73
2022/09/01 12:45:58;;;;;;;3.23;2.20;;;;;;;;;;5073720;28;20459;-73
2022/09/01 12:48:28;;;;;;;8.33;2.20;;;;;;;;;;5072210;28;20460;-73
2022/09/01 12:50:57;;;;;;;2.33;2.13;;;;;;;;;;5074656;28;20884;-73
2022/09/01 12:53:27;;;;;;;1.87;1.57;;;;;;;;;;5073092;28;20518;-73
2022/09/01 12:55:59;;;;;;;1.80;1.57;;;;;;;;;;5074055;28;20998;-73
2022/09/01 12:58:28;;;;;;;2.77;1.80;;;;;;;;;;5074221;28;20529;-73
2022/09/01 13:00:57;;;;;;;2.27;1.70;;;;;;;;;;5074223;28;20513;-73
2022/09/01 13:03:26;;;;;;;2.97;2.33;;;;;;;;;;5074052;28;20470;-73
2022/09/01 13:05:54;;;;;;;2.20;1.80;;;;;;;;;;5073733;28;20546;-73
2022/09/01 13:08:25;;;;;;;3.50;1.90;;;;;;;;;;5073849;28;20459;-73
2022/09/01 13:10:54;;;;;;;4.30;2.40;;;;;;;;;;5074127;28;20507;-75
2022/09/01 13:13:22;;;;;;;3.60;2.40;;;;;;;;;;5073759;28;20499;-73
2022/09/01 13:15:50;;;;;;;4.27;2.27;;;;;;;;;;5073845;28;20518;-72
2022/09/01 13:18:18;;;;;;;6.20;2.50;;;;;;;;;;5073762;28;20443;-72
2022/09/01 13:20:45;;;;;;;3.47;2.40;;;;;;;;;;5073611;28;20460;-72
2022/09/01 13:23:12;;;;;;;5.07;3.20;;;;;;;;;;5073740;28;20444;-72
2022/09/01 13:25:43;;;;;;;2.63;2.43;;;;;;;;;;5073496;28;20448;-73
2022/09/01 13:28:10;;;;;;;3.20;2.90;;;;;;;;;;5073808;28;20451;-72
2022/09/01 13:30:37;;;;;;;3.97;2.10;;;;;;;;;;5073589;28;20447;-72
2022/09/01 13:33:04;;;;;;;2.50;2.30;;;;;;;;;;5073530;28;20503;-72
2022/09/01 13:35:31;;;;;;;3.37;2.60;;;;;;;;;;5073364;28;20451;-72
2022/09/01 13:37:59;;;;;;;2.70;2.50;;;;;;;;;;5073634;28;20447;-72
2022/09/01 13:40:26;;;;;;;3.23;2.07;;;;;;;;;;5073538;28;20467;-72
2022/09/01 13:42:54;;;;;;;2.57;2.07;;;;;;;;;;5073405;28;20448;-73
2022/09/01 13:45:23;;;;;;;2.30;2.10;;;;;;;;;;5072961;28;20463;-72
2022/09/01 13:47:51;;;;;;;2.30;1.93;;;;;;;;;;5073337;28;20527;-71
2022/09/01 13:50:19;;;;;;;4.53;2.30;;;;;;;;;;5073635;28;20482;-72
2022/09/01 13:52:47;;;;;;;2.30;2.10;;;;;;;;;;5073213;28;20487;-72
2022/09/01 13:55:15;;;;;;;3.30;2.50;;;;;;;;;;5073325;28;20477;-72
2022/09/01 13:57:42;;;;;;;2.23;1.73;;;;;;;;;;5073152;28;20452;-72
2022/09/01 14:00:15;;;;;;;2.73;2.50;;;;;;;;;;5073040;28;20467;-71
2022/09/01 14:02:47;;;;;;;2.93;2.43;;;;;;;;;;5073134;28;20451;-71
2022/09/01 14:05:15;;;;;;;3.40;1.90;;;;;;;;;;5072865;28;20524;-71
2022/09/01 14:07:42;;;;;;;2.50;2.30;;;;;;;;;;5072556;28;20448;-70
2022/09/01 14:10:10;;;;;;;2.93;2.50;;;;;;;;;;5072978;28;20455;-71
2022/09/01 14:12:38;;;;;;;3.10;2.57;;;;;;;;;;5072731;28;21106;-72
2022/09/01 14:15:06;;;;;;;4.67;2.20;;;;;;;;;;5072750;28;20475;-72
2022/09/01 14:17:34;;;;;;;2.37;2.00;;;;;;;;;;5072527;28;20455;-72
2022/09/01 14:20:02;;;;;;;5.60;2.33;;;;;;;;;;5082078;28;20459;-72
2022/09/01 14:22:29;;;;;;;3.20;2.03;;;;;;;;;;5092134;28;20934;-72
2022/09/01 14:24:56;;;;;;;3.83;2.33;;;;;;;;;;5092495;28;21044;-72
2022/09/01 14:27:23;;;;;;;3.80;2.40;;;;;;;;;;5092532;28;20454;-72
2022/09/01 14:29:51;;;;;;;2.33;2.13;;;;;;;;;;5092759;28;20462;-72
2022/09/01 14:32:21;;;;;;;2.30;2.10;;;;;;;;;;5092505;28;20577;-72
2022/09/01 14:34:49;;;;;;;2.93;1.87;;;;;;;;;;5092466;28;20544;-73
2022/09/01 14:37:16;;;;;;;1.93;1.80;;;;;;;;;;5072319;28;20459;-74
2022/09/01 14:39:44;;;;;;;4.00;2.20;;;;;;;;;;5072513;28;20828;-72
2022/09/01 14:42:11;;;;;;;3.20;2.43;;;;;;;;;;5072400;28;20506;-72
2022/09/01 14:44:38;;;;;;;2.87;2.10;;;;;;;;;;5072069;28;20468;-72
2022/09/01 14:47:06;;;;;;;3.60;1.87;;;;;;;;;;5072679;28;21000;-72
2022/09/01 14:49:35;;;;;;;2.83;2.33;;;;;;;;;;5069884;28;20833;-72